createdAt,value
2024-04-22T00:00:33.033Z,6.73
2024-04-22T00:03:01.375Z,5.57
2024-04-22T00:05:27.679Z,4.50
2024-04-22T00:07:55.922Z,4.27
2024-04-22T00:10:24.166Z,8.77
2024-04-22T00:12:54.704Z,6.83
2024-04-22T00:15:20.948Z,6.00
2024-04-22T00:17:49.460Z,5.07
2024-04-22T00:20:15.725Z,5.30
2024-04-22T00:22:44.067Z,7.20
2024-04-22T00:25:10.354Z,6.83
2024-04-22T00:27:38.637Z,4.23
2024-04-22T00:30:08.537Z,6.30
2024-04-22T00:32:36.946Z,6.93
2024-04-22T00:35:03.650Z,5.80
2024-04-22T00:37:31.990Z,4.80
2024-04-22T00:39:58.377Z,5.33
2024-04-22T00:42:26.719Z,6.70
2024-04-22T00:44:53.068Z,7.07
2024-04-22T00:47:23.541Z,8.20
2024-04-22T00:49:50.283Z,8.77
2024-04-22T00:52:18.991Z,7.63
2024-04-22T00:54:45.562Z,6.87
2024-04-22T00:57:14.525Z,5.43
2024-04-22T00:59:40.938Z,7.47
2024-04-22T01:02:09.442Z,6.43
2024-04-22T01:04:39.044Z,7.27
2024-04-22T01:07:07.631Z,5.37
2024-04-22T01:09:33.834Z,5.43
2024-04-22T01:12:02.239Z,4.67
2024-04-22T01:14:28.629Z,7.33
2024-04-22T01:16:57.557Z,7.20
2024-04-22T01:19:24.160Z,5.13
2024-04-22T01:21:55.093Z,7.63
2024-04-22T01:24:21.609Z,5.13
2024-04-22T01:26:50.966Z,6.17
2024-04-22T01:29:17.328Z,7.77
2024-04-22T01:31:45.741Z,6.77
2024-04-22T01:34:11.998Z,6.43
2024-04-22T01:36:41.752Z,5.30
2024-04-22T01:39:10.780Z,6.03
2024-04-22T01:41:39.284Z,7.30
2024-04-22T01:44:06.046Z,7.77
2024-04-22T01:46:34.527Z,4.87
2024-04-22T01:49:01.077Z,8.20
2024-04-22T01:51:29.486Z,9.07
2024-04-22T01:53:55.689Z,6.40
2024-04-22T01:56:26.334Z,9.37
2024-04-22T01:58:53.125Z,8.37
2024-04-22T02:01:21.421Z,6.77
2024-04-22T02:03:47.790Z,7.17
2024-04-22T02:06:16.033Z,8.67
2024-04-22T02:08:42.297Z,10.60
2024-04-22T02:11:11.252Z,11.37
2024-04-22T02:13:39.945Z,12.83
2024-04-22T02:16:08.649Z,11.87
2024-04-22T02:18:34.991Z,6.43
2024-04-22T02:21:03.443Z,5.47
2024-04-22T02:23:29.715Z,7.33
2024-04-22T02:25:57.996Z,7.60
2024-04-22T02:28:24.283Z,9.57
2024-04-22T02:30:57.684Z,7.93
2024-04-22T02:33:24.109Z,7.73
2024-04-22T02:35:52.570Z,9.73
2024-04-22T02:38:18.838Z,8.17
2024-04-22T02:40:47.315Z,9.70
2024-04-22T02:43:13.797Z,7.63
2024-04-22T02:45:42.322Z,7.17
2024-04-22T02:48:10.705Z,6.80
2024-04-22T02:50:39.263Z,9.87
2024-04-22T02:53:05.648Z,9.00
2024-04-22T02:55:33.909Z,9.13
2024-04-22T02:58:00.227Z,9.07
2024-04-22T03:00:29.972Z,9.57
2024-04-22T03:02:56.381Z,8.87
2024-04-22T03:05:26.835Z,13.40
2024-04-22T03:07:53.129Z,8.17
2024-04-22T03:10:21.754Z,7.00
2024-04-22T03:12:48.910Z,8.67
2024-04-22T03:15:17.451Z,6.90
2024-04-22T03:17:43.752Z,12.63
2024-04-22T03:20:12.642Z,8.47
2024-04-22T03:22:41.015Z,9.33
2024-04-22T03:25:09.371Z,8.60
2024-04-22T03:27:35.753Z,10.93
2024-04-22T03:30:04.024Z,6.43
2024-04-22T03:32:30.424Z,7.33
2024-04-22T03:34:58.829Z,8.53
2024-04-22T03:37:27.319Z,7.70
2024-04-22T03:39:57.772Z,7.23
2024-04-22T03:42:26.104Z,10.13
2024-04-22T03:44:52.376Z,8.37
2024-04-22T03:47:37.370Z,10.63
2024-04-22T03:50:06.152Z,10.83
2024-04-22T03:52:34.531Z,9.37
2024-04-22T03:55:05.078Z,8.87
2024-04-22T03:57:33.493Z,10.10
2024-04-22T04:00:01.848Z,8.17
2024-04-22T04:02:30.671Z,12.67
2024-04-22T04:04:57.053Z,9.83
2024-04-22T04:07:25.531Z,9.80
2024-04-22T04:09:51.849Z,8.80
2024-04-22T04:12:22.150Z,9.60
2024-04-22T04:14:48.393Z,10.60
2024-04-22T04:17:16.840Z,15.30
2024-04-22T04:19:43.180Z,11.20
2024-04-22T04:22:11.501Z,8.03
2024-04-22T04:24:37.758Z,6.90
2024-04-22T04:27:06.510Z,7.67
2024-04-22T04:29:34.986Z,6.93
2024-04-22T04:32:03.643Z,7.77
2024-04-22T04:34:30.046Z,7.93
2024-04-22T04:36:58.500Z,7.30
2024-04-22T04:39:24.749Z,7.07
2024-04-22T04:41:53.167Z,13.30
2024-04-22T04:44:19.348Z,9.53
2024-04-22T04:46:49.688Z,8.67
2024-04-22T04:49:15.975Z,12.00
2024-04-22T04:51:44.331Z,8.63
2024-04-22T04:54:10.557Z,9.03
2024-04-22T04:56:39.027Z,10.57
2024-04-22T04:59:05.643Z,13.97
2024-04-22T05:01:34.232Z,9.33
2024-04-22T05:04:03.425Z,9.43
2024-04-22T05:06:32.435Z,8.90
2024-04-22T05:08:58.745Z,12.80
2024-04-22T05:11:27.212Z,12.53
2024-04-22T05:13:54.675Z,10.73
2024-04-22T05:16:22.989Z,10.87
2024-04-22T05:18:49.452Z,14.50
2024-04-22T05:21:19.957Z,12.00
2024-04-22T05:23:47.440Z,11.17
2024-04-22T05:26:15.674Z,11.40
2024-04-22T05:28:44.089Z,10.80
2024-04-22T05:31:13.782Z,13.00
2024-04-22T05:33:58.751Z,10.80
2024-04-22T05:36:29.203Z,12.83
2024-04-22T05:38:58.948Z,11.27
2024-04-22T05:41:25.377Z,13.77
2024-04-22T05:43:53.686Z,11.50
2024-04-22T05:46:22.616Z,12.20
2024-04-22T05:48:50.991Z,13.63
2024-04-22T05:51:17.412Z,11.03
2024-04-22T05:53:47.947Z,13.73
2024-04-22T05:56:14.316Z,11.23
2024-04-22T05:58:42.812Z,12.40
2024-04-22T06:01:09.362Z,14.90
2024-04-22T06:03:37.673Z,15.73
2024-04-22T06:06:04.501Z,13.10
2024-04-22T06:08:32.917Z,13.57
2024-04-22T06:11:01.397Z,12.73
2024-04-22T06:13:31.073Z,15.47
2024-04-22T06:15:57.711Z,10.80
2024-04-22T06:18:26.067Z,12.80
2024-04-22T06:20:52.401Z,11.87
2024-04-22T06:23:20.670Z,11.00
2024-04-22T06:25:47.595Z,14.67
2024-04-22T06:28:18.225Z,12.37
2024-04-22T06:30:45.376Z,11.47
2024-04-22T06:33:13.706Z,9.57
2024-04-22T06:35:40.102Z,10.10
2024-04-22T06:38:09.277Z,10.97
2024-04-22T06:40:35.623Z,10.40
2024-04-22T06:43:04.196Z,11.00
2024-04-22T06:45:32.684Z,10.60
2024-04-22T06:48:01.023Z,15.70
2024-04-22T06:50:27.783Z,15.93
2024-04-22T06:52:56.082Z,11.20
2024-04-22T06:55:25.471Z,10.63
2024-04-22T06:57:54.380Z,11.80
2024-04-22T07:00:20.908Z,12.40
2024-04-22T07:02:52.246Z,14.13
2024-04-22T07:05:18.758Z,12.87
2024-04-22T07:07:47.214Z,9.30
2024-04-22T07:10:13.743Z,11.57
2024-04-22T07:12:43.442Z,10.63
2024-04-22T07:15:10.217Z,9.17
2024-04-22T07:17:39.288Z,9.37
2024-04-22T07:20:08.234Z,7.67
2024-04-22T07:22:40.498Z,6.30
2024-04-22T07:25:06.813Z,4.77
2024-04-22T07:27:35.941Z,5.53
2024-04-22T07:30:04.323Z,4.57
2024-04-22T07:32:33.328Z,8.10
2024-04-22T07:35:00.549Z,5.63
2024-04-22T07:37:37.444Z,9.93
2024-04-22T07:40:12.352Z,6.37
2024-04-22T07:42:40.782Z,5.07
2024-04-22T07:45:07.572Z,7.53
2024-04-22T07:47:36.419Z,4.07
2024-04-22T07:50:03.163Z,5.97
2024-04-22T07:52:34.234Z,10.57
2024-04-22T07:55:01.638Z,4.60
2024-04-22T07:57:30.332Z,6.93
2024-04-22T07:59:57.259Z,5.70
2024-04-22T08:02:26.328Z,6.03
2024-04-22T08:04:53.219Z,3.50
2024-04-22T08:07:22.328Z,3.87
2024-04-22T08:09:50.791Z,3.50
2024-04-22T08:12:19.509Z,3.57
2024-04-22T08:14:45.801Z,3.90
2024-04-22T08:17:14.337Z,5.93
2024-04-22T08:19:41.672Z,3.93
2024-04-22T08:22:10.714Z,6.10
2024-04-22T08:24:36.984Z,3.33
2024-04-22T08:27:08.533Z,2.77
2024-04-22T08:29:34.874Z,2.20
2024-04-22T08:32:03.296Z,2.43
2024-04-22T08:34:29.529Z,3.50
2024-04-22T08:36:58.002Z,2.27
2024-04-22T08:39:24.535Z,2.93
2024-04-22T08:41:52.814Z,3.20
2024-04-22T08:44:21.076Z,2.80
2024-04-22T08:46:49.444Z,3.30
2024-04-22T08:49:15.717Z,3.73
2024-04-22T08:51:44.069Z,3.73
2024-04-22T08:54:10.441Z,3.40
2024-04-22T08:56:39.281Z,2.33
2024-04-22T08:59:05.590Z,3.47
2024-04-22T09:01:36.161Z,2.33
2024-04-22T09:04:02.529Z,2.87
2024-04-22T09:06:30.948Z,3.47
2024-04-22T09:08:58.111Z,2.03
2024-04-22T09:11:49.981Z,4.03
2024-04-22T09:14:15.991Z,3.07
2024-04-22T09:16:46.868Z,2.73
2024-04-22T09:19:20.829Z,2.30
2024-04-22T09:21:49.239Z,2.50
2024-04-22T09:24:15.607Z,2.50
2024-04-22T09:26:44.524Z,2.20
2024-04-22T09:29:12.577Z,4.63
2024-04-22T09:31:41.957Z,2.10
2024-04-22T09:34:12.358Z,3.50
2024-04-22T09:36:41.320Z,2.10
2024-04-22T09:39:08.205Z,3.03
2024-04-22T09:41:37.224Z,2.00
2024-04-22T09:44:08.474Z,3.63
2024-04-22T09:46:41.434Z,3.67
2024-04-22T09:49:10.473Z,3.80
2024-04-22T09:51:38.942Z,3.07
2024-04-22T09:54:05.465Z,2.70
2024-04-22T09:56:37.126Z,7.73
2024-04-22T09:59:03.815Z,3.87
2024-04-22T10:01:32.396Z,2.40
2024-04-22T10:03:59.126Z,3.03
2024-04-22T10:06:30.211Z,2.67
2024-04-22T10:08:59.037Z,2.70
2024-04-22T10:11:32.468Z,2.60
2024-04-22T10:14:08.872Z,2.40
2024-04-22T10:16:37.271Z,3.27
2024-04-22T10:19:04.155Z,2.83
2024-04-22T10:21:34.783Z,2.60
2024-04-22T10:24:01.090Z,3.47
2024-04-22T10:26:29.932Z,2.87
2024-04-22T10:28:57.844Z,3.63
2024-04-22T10:31:26.490Z,7.87
2024-04-22T10:33:52.948Z,2.63
2024-04-22T10:36:21.466Z,2.40
2024-04-22T10:38:49.819Z,2.90
2024-04-22T10:41:18.368Z,2.90
2024-04-22T10:43:45.928Z,4.10
2024-04-22T10:46:14.350Z,3.53
2024-04-22T10:48:41.001Z,3.40
2024-04-22T10:51:12.681Z,3.30
2024-04-22T10:53:39.075Z,2.90
2024-04-22T10:56:10.002Z,3.57
2024-04-22T10:58:36.343Z,2.87
2024-04-22T11:01:05.018Z,5.53
2024-04-22T11:03:31.413Z,3.37
2024-04-22T11:06:03.599Z,3.20
2024-04-22T11:08:30.513Z,4.40
2024-04-22T11:10:59.899Z,3.70
2024-04-22T11:13:28.355Z,5.90
2024-04-22T11:15:56.927Z,3.13
2024-04-22T11:18:23.279Z,3.90
2024-04-22T11:20:51.678Z,3.60
2024-04-22T11:23:18.131Z,4.53
2024-04-22T11:25:47.301Z,3.60
2024-04-22T11:28:13.774Z,5.60
2024-04-22T11:30:44.255Z,4.60
2024-04-22T11:33:11.413Z,5.30
2024-04-22T11:35:39.898Z,7.03
2024-04-22T11:38:13.883Z,6.27
2024-04-22T11:40:42.468Z,5.47
2024-04-22T11:43:08.802Z,4.40
2024-04-22T11:45:37.090Z,8.10
2024-04-22T11:48:06.596Z,5.40
2024-04-22T11:50:37.458Z,6.20
2024-04-22T11:53:14.316Z,4.60
2024-04-22T11:55:47.122Z,4.43
2024-04-22T11:58:13.509Z,5.03
2024-04-22T12:00:43.145Z,5.47
2024-04-22T12:03:11.535Z,7.17
2024-04-22T12:05:40.040Z,6.33
2024-04-22T12:08:07.774Z,6.00
2024-04-22T12:10:36.242Z,7.37
2024-04-22T12:13:02.491Z,5.70
2024-04-22T12:15:30.875Z,5.70
2024-04-22T12:17:57.207Z,6.20
2024-04-22T12:20:27.641Z,6.17
2024-04-22T12:22:54.148Z,7.13
2024-04-22T12:25:22.847Z,8.03
2024-04-22T12:27:49.685Z,7.17
2024-04-22T12:30:18.017Z,6.80
2024-04-22T12:32:46.488Z,6.20
2024-04-22T12:35:13.157Z,5.07
2024-04-22T12:37:43.710Z,5.27
2024-04-22T12:40:10.675Z,5.37
2024-04-22T12:42:39.138Z,6.47
2024-04-22T12:45:06.225Z,8.70
2024-04-22T12:47:51.001Z,6.33
2024-04-22T12:50:35.964Z,6.10
2024-04-22T12:53:06.859Z,4.30
2024-04-22T12:55:36.099Z,5.20
2024-04-22T12:58:05.074Z,6.43
2024-04-22T13:00:34.383Z,6.23
2024-04-22T13:03:03.110Z,5.80
2024-04-22T13:05:31.448Z,7.10
2024-04-22T13:07:59.745Z,7.00
2024-04-22T13:10:30.146Z,7.90
2024-04-22T13:12:56.815Z,9.10
2024-04-22T13:15:25.206Z,7.40
2024-04-22T13:17:51.810Z,7.43
2024-04-22T13:20:20.316Z,5.67
2024-04-22T13:22:46.676Z,5.93
2024-04-22T13:25:15.004Z,5.40
2024-04-22T13:27:43.955Z,5.67
2024-04-22T13:30:14.537Z,4.53
2024-04-22T13:32:44.131Z,5.27
2024-04-22T13:35:12.477Z,7.67
2024-04-22T13:37:40.352Z,6.97
2024-04-22T13:40:09.623Z,10.23
2024-04-22T13:42:39.465Z,7.20
2024-04-22T13:45:12.791Z,7.87
2024-04-22T13:47:39.267Z,9.07
2024-04-22T13:50:07.871Z,7.23
2024-04-22T13:52:34.101Z,7.67
2024-04-22T13:55:04.835Z,8.70
2024-04-22T13:57:38.156Z,8.77
2024-04-22T14:00:11.999Z,7.40
2024-04-22T14:02:45.550Z,10.37
2024-04-22T14:05:12.001Z,8.37
2024-04-22T14:07:41.272Z,7.43
2024-04-22T14:10:09.351Z,7.73
2024-04-22T14:12:38.345Z,6.53
2024-04-22T14:15:06.141Z,6.73
2024-04-22T14:17:35.610Z,6.67
2024-04-22T14:20:04.967Z,8.37
2024-04-22T14:22:33.258Z,6.23
2024-04-22T14:24:59.641Z,7.77
2024-04-22T14:27:27.967Z,6.90
2024-04-22T14:29:54.329Z,8.53
2024-04-22T14:32:22.523Z,9.07
2024-04-22T14:34:48.811Z,7.83
2024-04-22T14:37:19.202Z,6.77
2024-04-22T14:39:45.454Z,7.67
2024-04-22T14:42:13.738Z,7.33
2024-04-22T14:44:44.118Z,6.83
2024-04-22T14:47:11.491Z,6.10
2024-04-22T14:49:40.110Z,5.60
2024-04-22T14:52:06.429Z,6.07
2024-04-22T14:54:36.746Z,7.00
2024-04-22T14:57:03.889Z,6.27
2024-04-22T14:59:32.140Z,6.43
2024-04-22T15:01:58.733Z,6.87
2024-04-22T15:04:27.316Z,7.53
2024-04-22T15:06:53.805Z,5.93
2024-04-22T15:09:23.375Z,6.80
2024-04-22T15:11:51.718Z,6.27
2024-04-22T15:14:21.165Z,6.70
2024-04-22T15:16:48.634Z,6.17
2024-04-22T15:19:16.995Z,5.70
2024-04-22T15:21:43.275Z,7.00
2024-04-22T15:24:11.721Z,5.77
2024-04-22T15:26:37.980Z,7.10
2024-04-22T15:29:08.245Z,6.80
2024-04-22T15:31:34.688Z,6.53
2024-04-22T15:34:03.080Z,5.43
2024-04-22T15:36:29.434Z,6.50
2024-04-22T15:38:58.337Z,5.27
2024-04-22T15:41:24.683Z,8.50
2024-04-22T15:43:53.199Z,4.87
2024-04-22T15:46:21.498Z,7.07
2024-04-22T15:48:49.831Z,5.80
2024-04-22T15:51:16.071Z,5.07
2024-04-22T15:53:44.299Z,4.27
2024-04-22T15:56:10.549Z,4.73
2024-04-22T15:58:40.885Z,4.77
2024-04-22T16:01:07.733Z,6.47
2024-04-22T16:03:38.145Z,6.30
2024-04-22T16:06:05.769Z,3.83
2024-04-22T16:08:34.132Z,5.30
2024-04-22T16:11:00.483Z,4.13
2024-04-22T16:13:28.908Z,4.10
2024-04-22T16:15:55.293Z,4.03
2024-04-22T16:18:23.731Z,4.10
2024-04-22T16:20:57.085Z,4.70
2024-04-22T16:23:34.589Z,3.43
2024-04-22T16:26:00.908Z,3.53
2024-04-22T16:28:29.249Z,2.87
2024-04-22T16:30:55.606Z,3.73
2024-04-22T16:33:26.537Z,3.10
2024-04-22T16:35:55.280Z,3.73
2024-04-22T16:38:26.120Z,4.03
2024-04-22T16:40:52.518Z,3.17
2024-04-22T16:43:22.391Z,3.07
2024-04-22T16:45:48.870Z,3.77
2024-04-22T16:48:19.093Z,2.93
2024-04-22T16:50:46.949Z,3.30
2024-04-22T16:53:17.542Z,4.30
2024-04-22T16:55:43.858Z,4.67
2024-04-22T16:58:12.112Z,6.67
2024-04-22T17:00:38.642Z,5.63
2024-04-22T17:03:07.283Z,6.80
2024-04-22T17:05:33.497Z,5.93
2024-04-22T17:08:01.737Z,6.80
2024-04-22T17:10:30.141Z,4.70
2024-04-22T17:12:58.368Z,4.47
2024-04-22T17:15:24.685Z,5.83
2024-04-22T17:17:52.977Z,5.57
2024-04-22T17:20:19.250Z,6.77
2024-04-22T17:22:47.638Z,7.43
2024-04-22T17:25:14.142Z,8.80
2024-04-22T17:27:44.486Z,4.70
2024-04-22T17:30:11.175Z,5.10
2024-04-22T17:32:39.602Z,7.37
2024-04-22T17:35:06.207Z,6.17
2024-04-22T17:37:34.492Z,5.50
2024-04-22T17:40:01.493Z,7.83
2024-04-22T17:42:29.805Z,5.90
2024-04-22T17:45:00.627Z,7.83
2024-04-22T17:47:27.111Z,5.87
2024-04-22T17:49:55.487Z,9.27
2024-04-22T17:52:21.865Z,6.20
2024-04-22T17:54:50.480Z,6.63
2024-04-22T17:57:16.779Z,6.60
2024-04-22T17:59:46.952Z,7.67
2024-04-22T18:02:15.675Z,6.50
2024-04-22T18:04:44.105Z,5.30
2024-04-22T18:07:10.377Z,5.73
2024-04-22T18:09:38.711Z,7.73
2024-04-22T18:12:05.835Z,6.77
2024-04-22T18:14:34.239Z,6.50
2024-04-22T18:17:00.581Z,4.93
2024-04-22T18:19:31.068Z,5.97
2024-04-22T18:22:02.134Z,6.53
2024-04-22T18:24:36.102Z,5.80
2024-04-22T18:27:02.285Z,5.43
2024-04-22T18:29:33.443Z,6.13
2024-04-22T18:31:59.660Z,6.03
2024-04-22T18:34:28.424Z,7.50
2024-04-22T18:36:56.749Z,7.23
2024-04-22T18:39:25.326Z,6.57
2024-04-22T18:41:51.546Z,6.43
2024-04-22T18:44:20.044Z,7.37
2024-04-22T18:46:46.514Z,7.10
2024-04-22T18:49:14.825Z,6.47
2024-04-22T18:51:41.081Z,5.80
2024-04-22T18:54:11.584Z,7.47
2024-04-22T18:56:37.902Z,6.73
2024-04-22T18:59:06.251Z,7.43
2024-04-22T19:01:32.588Z,6.10
2024-04-22T19:04:00.932Z,6.40
2024-04-22T19:06:27.340Z,7.90
2024-04-22T19:08:55.663Z,7.73
2024-04-22T19:11:24.023Z,7.67
2024-04-22T19:13:52.627Z,7.70
2024-04-22T19:16:19.480Z,10.37
2024-04-22T19:18:49.645Z,10.43
2024-04-22T19:21:16.301Z,11.10
2024-04-22T19:23:44.771Z,12.03
2024-04-22T19:26:11.568Z,18.93
2024-04-22T19:28:42.116Z,9.43
2024-04-22T19:31:08.661Z,9.30
2024-04-22T19:33:37.204Z,10.33
2024-04-22T19:36:04.078Z,9.53
2024-04-22T19:38:32.393Z,7.83
2024-04-22T19:40:59.069Z,8.40
2024-04-22T19:43:27.670Z,7.93
2024-04-22T19:45:56.142Z,7.63
2024-04-22T19:48:24.549Z,7.83
2024-04-22T19:50:52.593Z,9.70
2024-04-22T19:53:21.220Z,8.43
2024-04-22T19:55:48.066Z,7.50
2024-04-22T19:58:16.407Z,8.10
2024-04-22T20:00:43.249Z,7.97
2024-04-22T20:03:13.680Z,7.77
2024-04-22T20:05:40.002Z,9.37
2024-04-22T20:08:10.939Z,8.70
2024-04-22T20:10:39.873Z,7.87
2024-04-22T20:13:08.339Z,9.00
2024-04-22T20:15:41.197Z,9.10
2024-04-22T20:18:28.360Z,10.03
2024-04-22T20:20:57.478Z,10.33
2024-04-22T20:23:25.780Z,10.57
2024-04-22T20:25:55.468Z,7.30
2024-04-22T20:28:24.191Z,10.63
2024-04-22T20:30:50.565Z,8.03
2024-04-22T20:33:19.150Z,8.83
2024-04-22T20:35:52.657Z,9.93
2024-04-22T20:38:23.070Z,9.93
2024-04-22T20:40:56.278Z,10.27
2024-04-22T20:43:24.674Z,10.67
2024-04-22T20:45:50.931Z,8.40
2024-04-22T20:48:19.428Z,8.97
2024-04-22T20:50:45.769Z,8.20
2024-04-22T20:53:14.165Z,7.87
2024-04-22T20:55:51.159Z,9.80
2024-04-22T20:58:19.546Z,9.60
2024-04-22T21:00:52.812Z,9.27
2024-04-22T21:03:21.260Z,9.80
2024-04-22T21:05:47.553Z,8.90
2024-04-22T21:08:16.099Z,13.20
2024-04-22T21:10:46.239Z,9.97
2024-04-22T21:13:16.464Z,9.30
2024-04-22T21:15:43.778Z,8.80
2024-04-22T21:18:12.120Z,10.30
2024-04-22T21:20:38.558Z,10.13
2024-04-22T21:23:06.979Z,10.70
2024-04-22T21:25:33.248Z,8.03
2024-04-22T21:28:03.671Z,10.17
2024-04-22T21:30:29.997Z,8.60
2024-04-22T21:33:17.305Z,9.20
2024-04-22T21:35:44.530Z,8.57
2024-04-22T21:38:14.518Z,8.53
2024-04-22T21:40:42.114Z,9.77
2024-04-22T21:43:12.375Z,8.70
2024-04-22T21:45:38.696Z,10.73
2024-04-22T21:48:07.682Z,8.93
2024-04-22T21:50:35.247Z,8.87
2024-04-22T21:53:03.532Z,11.77
2024-04-22T21:55:57.702Z,8.03
2024-04-22T21:59:05.525Z,10.50
2024-04-22T22:02:09.014Z,12.00
2024-04-22T22:05:15.227Z,9.07
2024-04-22T22:07:41.408Z,10.57
2024-04-22T22:10:11.843Z,9.10
2024-04-22T22:12:38.153Z,11.93
2024-04-22T22:15:07.009Z,11.17
2024-04-22T22:17:33.374Z,11.53
2024-04-22T22:20:01.818Z,10.07
2024-04-22T22:22:29.064Z,13.83
2024-04-22T22:24:57.437Z,9.27
2024-04-22T22:27:25.733Z,12.37
2024-04-22T22:29:53.954Z,11.27
2024-04-22T22:32:20.280Z,9.87
2024-04-22T22:34:48.744Z,10.27
2024-04-22T22:37:15.510Z,11.30
2024-04-22T22:39:45.536Z,13.10
2024-04-22T22:42:13.002Z,11.00
2024-04-22T22:44:43.377Z,11.80
2024-04-22T22:47:09.867Z,11.03
2024-04-22T22:49:38.356Z,11.63
2024-04-22T22:52:05.358Z,12.27
2024-04-22T22:54:33.682Z,10.60
2024-04-22T22:57:00.799Z,12.63
2024-04-22T22:59:29.786Z,12.00
2024-04-22T23:01:58.590Z,12.47
2024-04-22T23:04:27.534Z,12.20
2024-04-22T23:07:01.549Z,13.37
2024-04-22T23:09:29.872Z,12.50
2024-04-22T23:11:56.335Z,12.13
2024-04-22T23:14:24.775Z,11.57
2024-04-22T23:16:51.190Z,13.63
2024-04-22T23:19:21.643Z,9.97
2024-04-22T23:21:47.928Z,11.50
2024-04-22T23:24:16.262Z,10.73
2024-04-22T23:26:49.934Z,16.63
2024-04-22T23:29:18.185Z,12.93
2024-04-22T23:31:44.948Z,12.50
2024-04-22T23:34:13.255Z,11.43
2024-04-22T23:36:46.547Z,13.43
2024-04-22T23:39:14.928Z,14.50
2024-04-22T23:41:41.172Z,12.70
2024-04-22T23:44:09.451Z,13.47
2024-04-22T23:46:35.751Z,11.80
2024-04-22T23:49:04.079Z,11.37
2024-04-22T23:51:30.353Z,11.10
2024-04-22T23:54:00.720Z,11.97
2024-04-22T23:56:27.102Z,10.37
2024-04-22T23:58:55.858Z,12.03
